Solrod, Denmark
Current Conditions -  °F | °C
As of 5:20 PM on Sunday 23 Nov 2014 (Local Time) from EKRK Reporting Station
Broken Clouds Broken Clouds  
Wind Chill: 36°   Ceiling: 1200
Heat Index: 45°   Visibility: 4mi
Dew Point: 43°   Wind: 22mph
Humidity: 93%   Direction: 140°SE
Pressure: 30.09"   Gusts: NA
Location:  55.54°N, 12.18°E
Report Text: EKRK 231620Z AUTO 14019KT 6000NDV BKN012/// BKN015///07/06 Q1019
Loading
Personal Weather Stations






























Interactive Weather Map New forecast layout! Learn more

10-Day Weather Forecast

Advertisements
Track Severe Weather on mobile